createdAt,value
2018-08-06T00:00:55.071Z,47.53
2018-08-06T00:03:25.168Z,47.63
2018-08-06T00:05:55.282Z,47.72
2018-08-06T00:08:24.810Z,48.08
2018-08-06T00:10:53.963Z,48.16
2018-08-06T00:13:23.537Z,48.16
2018-08-06T00:15:52.513Z,48.73
2018-08-06T00:18:21.641Z,48.51
2018-08-06T00:20:50.668Z,48.90
2018-08-06T00:23:19.732Z,49.21
2018-08-06T00:25:48.259Z,48.51
2018-08-06T00:28:17.291Z,48.80
2018-08-06T00:30:47.460Z,49.07
2018-08-06T00:33:17.046Z,49.79
2018-08-06T00:35:47.188Z,50.42
2018-08-06T00:38:16.996Z,49.94
2018-08-06T00:40:46.911Z,50.12
2018-08-06T00:43:16.007Z,49.99
2018-08-06T00:45:46.425Z,49.46
2018-08-06T00:48:15.458Z,49.91
2018-08-06T00:50:44.708Z,49.96
2018-08-06T00:53:13.948Z,50.81
2018-08-06T00:55:42.846Z,50.99
2018-08-06T00:58:12.035Z,51.03
2018-08-06T01:00:41.232Z,50.26
2018-08-06T01:03:11.223Z,50.75
2018-08-06T01:05:41.451Z,51.42
2018-08-06T01:08:10.711Z,51.73
2018-08-06T01:10:40.216Z,51.15
2018-08-06T01:13:10.796Z,51.83
2018-08-06T01:15:39.977Z,51.77
2018-08-06T01:18:09.323Z,52.28
2018-08-06T01:20:38.723Z,52.51
2018-08-06T01:23:08.611Z,52.22
2018-08-06T01:25:39.860Z,52.17
2018-08-06T01:28:09.029Z,52.24
2018-08-06T01:30:41.685Z,52.35
2018-08-06T01:33:13.271Z,52.80
2018-08-06T01:35:46.325Z,53.06
2018-08-06T01:38:17.002Z,53.37
2018-08-06T01:40:47.414Z,53.69
2018-08-06T01:43:18.666Z,53.47
2018-08-06T01:45:49.110Z,53.36
2018-08-06T01:48:18.613Z,53.67
2018-08-06T01:50:47.912Z,53.79
2018-08-06T01:53:18.565Z,53.61
2018-08-06T01:55:48.804Z,53.67
2018-08-06T01:58:19.942Z,53.65
2018-08-06T02:00:50.908Z,53.65
2018-08-06T02:03:21.104Z,53.59
2018-08-06T02:05:51.018Z,53.53
2018-08-06T02:08:21.820Z,54.22
2018-08-06T02:10:51.843Z,54.07
2018-08-06T02:13:21.704Z,54.03
2018-08-06T02:15:52.447Z,54.22
2018-08-06T02:18:22.021Z,53.84
2018-08-06T02:20:53.466Z,53.80
2018-08-06T02:23:24.510Z,54.25
2018-08-06T02:25:54.639Z,54.22
2018-08-06T02:28:24.629Z,54.13
2018-08-06T02:30:54.533Z,53.88
2018-08-06T02:33:24.767Z,54.14
2018-08-06T02:35:57.701Z,54.38
2018-08-06T02:38:29.965Z,54.83
2018-08-06T02:41:00.253Z,54.69
2018-08-06T02:43:29.492Z,54.22
2018-08-06T02:45:59.709Z,54.19
2018-08-06T02:48:29.415Z,54.88
2018-08-06T02:51:00.974Z,54.56
2018-08-06T02:53:32.315Z,54.72
2018-08-06T02:56:02.528Z,54.88
2018-08-06T02:58:34.218Z,55.17
2018-08-06T03:01:05.463Z,54.93
2018-08-06T03:03:36.932Z,55.52
2018-08-06T03:06:17.460Z,55.32
2018-08-06T03:08:49.089Z,55.82
2018-08-06T03:11:20.637Z,56.20
2018-08-06T03:13:50.570Z,55.90
2018-08-06T03:16:22.172Z,55.97
2018-08-06T03:18:52.254Z,56.33
2018-08-06T03:21:24.755Z,55.24
2018-08-06T03:23:56.756Z,55.49
2018-08-06T03:26:28.004Z,56.46
2018-08-06T03:29:00.344Z,56.85
2018-08-06T03:31:31.470Z,56.28
2018-08-06T03:34:03.533Z,55.35
2018-08-06T03:36:34.402Z,55.69
2018-08-06T03:39:08.075Z,54.93
2018-08-06T03:41:36.878Z,56.03
2018-08-06T03:44:08.705Z,56.48
2018-08-06T03:46:40.052Z,56.34
2018-08-06T03:49:10.660Z,55.91
2018-08-06T03:51:41.281Z,56.38
2018-08-06T03:54:12.194Z,56.63
2018-08-06T03:56:45.404Z,56.48
2018-08-06T03:59:16.295Z,56.23
2018-08-06T04:01:49.488Z,56.35
2018-08-06T04:04:19.772Z,56.82
2018-08-06T04:06:51.848Z,56.78
2018-08-06T04:09:22.009Z,57.02
2018-08-06T04:11:54.372Z,56.96
2018-08-06T04:14:25.239Z,57.67
2018-08-06T04:16:58.051Z,57.17
2018-08-06T04:19:30.579Z,57.43
2018-08-06T04:22:03.133Z,57.39
2018-08-06T04:24:34.612Z,57.41
2018-08-06T04:27:05.447Z,57.18
2018-08-06T04:29:35.883Z,56.77
2018-08-06T04:32:09.307Z,56.01
2018-08-06T04:34:41.420Z,55.82
2018-08-06T04:37:11.729Z,56.11
2018-08-06T04:39:42.499Z,56.68
2018-08-06T04:42:17.942Z,56.07
2018-08-06T04:44:49.742Z,55.60
2018-08-06T04:47:20.585Z,55.62
2018-08-06T04:49:58.306Z,55.29
2018-08-06T04:52:30.893Z,55.20
2018-08-06T04:55:01.181Z,55.58
2018-08-06T04:57:33.929Z,55.18
2018-08-06T05:00:08.912Z,54.29
2018-08-06T05:02:42.311Z,54.63
2018-08-06T05:05:11.984Z,54.46
2018-08-06T05:07:48.051Z,54.12
2018-08-06T05:10:19.514Z,54.03
2018-08-06T05:12:50.437Z,53.28
2018-08-06T05:15:20.641Z,53.63
2018-08-06T05:17:51.562Z,53.19
2018-08-06T05:20:22.547Z,53.18
2018-08-06T05:22:53.449Z,52.89
2018-08-06T05:25:24.435Z,52.64
2018-08-06T05:27:59.158Z,53.11
2018-08-06T05:30:31.040Z,52.93
2018-08-06T05:33:02.820Z,52.71
2018-08-06T05:35:36.027Z,53.11
2018-08-06T05:38:07.604Z,52.99
2018-08-06T05:40:38.416Z,53.05
2018-08-06T05:43:13.725Z,52.17
2018-08-06T05:45:46.903Z,52.74
2018-08-06T05:48:19.808Z,51.99
2018-08-06T05:50:50.345Z,52.92
2018-08-06T05:53:21.266Z,52.21
2018-08-06T05:55:55.881Z,51.98
2018-08-06T05:58:26.298Z,52.10
2018-08-06T06:01:00.032Z,52.34
2018-08-06T06:03:31.439Z,52.42
2018-08-06T06:06:01.764Z,52.11
2018-08-06T06:08:36.708Z,52.37
2018-08-06T06:11:09.471Z,51.64
2018-08-06T06:13:39.860Z,51.69
2018-08-06T06:16:10.145Z,51.22
2018-08-06T06:18:41.627Z,51.82
2018-08-06T06:21:13.881Z,51.48
2018-08-06T06:23:45.681Z,50.90
2018-08-06T06:26:16.581Z,51.25
2018-08-06T06:28:48.863Z,51.18
2018-08-06T06:31:25.215Z,50.63
2018-08-06T06:33:56.626Z,50.34
2018-08-06T06:36:29.658Z,50.17
2018-08-06T06:39:01.354Z,49.63
2018-08-06T06:41:32.321Z,49.11
2018-08-06T06:44:06.753Z,48.79
2018-08-06T06:46:41.306Z,48.96
2018-08-06T06:49:11.872Z,49.30
2018-08-06T06:51:47.731Z,48.98
2018-08-06T06:54:18.981Z,48.63
2018-08-06T06:56:50.695Z,48.91
2018-08-06T06:59:22.875Z,48.35
2018-08-06T07:01:58.053Z,47.96
2018-08-06T07:04:29.673Z,47.49
2018-08-06T07:07:02.500Z,47.71
2018-08-06T07:09:34.856Z,47.04
2018-08-06T07:12:05.464Z,47.12
2018-08-06T07:14:36.073Z,46.97
2018-08-06T07:17:08.668Z,46.74
2018-08-06T07:19:40.472Z,46.35
2018-08-06T07:22:12.681Z,45.47
2018-08-06T07:24:44.792Z,46.11
2018-08-06T07:27:14.895Z,45.36
2018-08-06T07:29:46.857Z,45.91
2018-08-06T07:32:19.357Z,45.85
2018-08-06T07:34:51.430Z,45.53
2018-08-06T07:37:22.540Z,45.46
2018-08-06T07:39:55.275Z,45.18
2018-08-06T07:42:30.566Z,45.28
2018-08-06T07:45:03.842Z,45.04
2018-08-06T07:47:35.938Z,44.48
2018-08-06T07:50:09.627Z,43.71
2018-08-06T07:52:40.060Z,43.10
2018-08-06T07:55:11.307Z,42.83
2018-08-06T07:57:43.517Z,43.18
2018-08-06T08:00:19.450Z,43.59
2018-08-06T08:02:51.372Z,42.59
2018-08-06T08:05:21.788Z,41.49
2018-08-06T08:07:53.353Z,41.76
2018-08-06T08:10:26.437Z,42.05
2018-08-06T08:12:57.112Z,42.41
2018-08-06T08:15:29.051Z,41.80
2018-08-06T08:17:58.005Z,40.53
2018-08-06T08:20:28.469Z,40.05
2018-08-06T08:22:59.759Z,40.35
2018-08-06T08:25:32.201Z,40.08
2018-08-06T08:28:05.442Z,40.71
2018-08-06T08:30:36.840Z,40.19
2018-08-06T08:33:09.056Z,40.70
2018-08-06T08:35:42.446Z,40.30
2018-08-06T08:38:13.639Z,40.51
2018-08-06T08:40:48.678Z,39.82
2018-08-06T08:43:20.376Z,39.56
2018-08-06T08:45:52.570Z,39.14
2018-08-06T08:48:23.492Z,39.26
2018-08-06T08:50:53.616Z,40.66
2018-08-06T08:53:23.688Z,39.98
2018-08-06T08:55:54.906Z,40.64
2018-08-06T08:58:26.649Z,39.64
2018-08-06T09:00:58.111Z,39.40
2018-08-06T09:03:31.086Z,39.25
2018-08-06T09:06:03.794Z,39.25
2018-08-06T09:08:34.081Z,38.71
2018-08-06T09:11:04.947Z,39.02
2018-08-06T09:13:37.610Z,39.17
2018-08-06T09:16:09.811Z,37.98
2018-08-06T09:18:41.626Z,37.60
2018-08-06T09:21:14.509Z,37.68
2018-08-06T09:23:49.277Z,37.38
2018-08-06T09:26:21.117Z,37.86
2018-08-06T09:28:52.648Z,38.38
2018-08-06T09:31:24.354Z,37.40
2018-08-06T09:33:58.421Z,37.62
2018-08-06T09:36:31.187Z,37.90
2018-08-06T09:39:03.137Z,37.52
2018-08-06T09:41:36.637Z,37.21
2018-08-06T09:44:08.062Z,37.19
2018-08-06T09:46:38.908Z,36.87
2018-08-06T09:49:12.146Z,36.82
2018-08-06T09:51:44.650Z,37.04
2018-08-06T09:54:21.036Z,36.07
2018-08-06T09:56:52.790Z,35.75
2018-08-06T09:59:25.545Z,34.71
2018-08-06T10:01:57.077Z,35.80
2018-08-06T10:04:30.687Z,34.73
2018-08-06T10:06:59.859Z,35.47
2018-08-06T10:09:33.385Z,34.45
2018-08-06T10:12:07.195Z,33.25
2018-08-06T10:14:41.840Z,34.22
2018-08-06T10:17:12.662Z,33.82
2018-08-06T10:19:48.869Z,34.01
2018-08-06T10:22:20.269Z,34.18
2018-08-06T10:24:53.028Z,34.93
2018-08-06T10:27:24.458Z,34.53
2018-08-06T10:29:56.239Z,33.94
2018-08-06T10:32:29.924Z,32.88
2018-08-06T10:35:00.842Z,33.02
2018-08-06T10:37:33.230Z,32.54
2018-08-06T10:40:05.341Z,31.69
2018-08-06T10:42:36.859Z,31.55
2018-08-06T10:45:12.865Z,31.72
2018-08-06T10:47:43.031Z,32.40
2018-08-06T10:50:13.746Z,31.20
2018-08-06T10:52:44.139Z,30.95
2018-08-06T10:55:15.755Z,30.87
2018-08-06T10:57:47.463Z,30.69
2018-08-06T11:00:22.581Z,29.88
2018-08-06T11:02:54.113Z,30.28
2018-08-06T11:05:24.455Z,30.31
2018-08-06T11:07:56.354Z,30.29
2018-08-06T11:10:27.071Z,30.14
2018-08-06T11:13:00.766Z,29.58
2018-08-06T11:15:33.511Z,28.89
2018-08-06T11:18:06.341Z,28.40
2018-08-06T11:20:35.217Z,27.92
2018-08-06T11:23:07.443Z,28.06
2018-08-06T11:25:37.898Z,27.82
2018-08-06T11:28:10.467Z,27.29
2018-08-06T11:30:41.935Z,27.48
2018-08-06T11:33:13.571Z,27.74
2018-08-06T11:35:49.715Z,27.56
2018-08-06T11:38:20.450Z,27.01
2018-08-06T11:40:54.969Z,26.52
2018-08-06T11:43:27.106Z,26.44
2018-08-06T11:46:00.622Z,26.27
2018-08-06T11:48:32.407Z,26.22
2018-08-06T11:51:04.712Z,26.33
2018-08-06T11:53:35.371Z,26.80
2018-08-06T11:56:08.375Z,26.71
2018-08-06T11:58:39.204Z,26.15
2018-08-06T12:01:11.238Z,25.72
2018-08-06T12:03:43.931Z,26.35
2018-08-06T12:06:15.256Z,25.73
2018-08-06T12:08:45.979Z,25.15
2018-08-06T12:11:17.650Z,25.52
2018-08-06T12:13:48.248Z,26.18
2018-08-06T12:16:23.769Z,25.93
2018-08-06T12:18:55.812Z,25.71
2018-08-06T12:21:27.195Z,25.34
2018-08-06T12:23:59.034Z,25.08
2018-08-06T12:26:31.230Z,24.48
2018-08-06T12:29:04.502Z,23.75
2018-08-06T12:31:36.146Z,23.39
2018-08-06T12:34:07.876Z,24.26
2018-08-06T12:36:41.180Z,23.14
2018-08-06T12:39:15.105Z,23.79
2018-08-06T12:41:44.870Z,23.12
2018-08-06T12:44:16.639Z,23.63
2018-08-06T12:46:46.194Z,23.49
2018-08-06T12:49:17.996Z,23.58
2018-08-06T12:51:48.595Z,23.18
2018-08-06T12:54:17.308Z,23.14
2018-08-06T12:56:45.507Z,23.13
2018-08-06T12:59:14.082Z,21.74
2018-08-06T13:01:43.333Z,22.68
2018-08-06T13:04:11.515Z,22.67
2018-08-06T13:06:39.725Z,22.21
2018-08-06T13:09:09.233Z,21.98
2018-08-06T13:11:37.646Z,21.47
2018-08-06T13:14:06.538Z,21.99
2018-08-06T13:16:34.861Z,22.09
2018-08-06T13:19:03.051Z,22.13
2018-08-06T13:21:32.313Z,22.94
2018-08-06T13:24:00.762Z,22.38
2018-08-06T13:26:29.009Z,20.61
2018-08-06T13:28:57.491Z,20.22
2018-08-06T13:31:27.038Z,19.77
2018-08-06T13:33:55.613Z,19.76
2018-08-06T13:36:23.853Z,20.29
2018-08-06T13:38:52.093Z,20.64
2018-08-06T13:41:21.845Z,19.32
2018-08-06T13:43:50.092Z,17.38
2018-08-06T13:46:18.658Z,16.93
2018-08-06T13:48:46.932Z,15.63
2018-08-06T13:51:15.452Z,15.07
2018-08-06T13:53:44.450Z,14.68
2018-08-06T13:56:13.445Z,14.96
2018-08-06T13:58:41.699Z,14.74
2018-08-06T14:01:10.914Z,13.18
2018-08-06T14:03:39.906Z,13.18
2018-08-06T14:06:08.234Z,12.10
2018-08-06T14:08:36.415Z,11.62
2018-08-06T14:11:04.628Z,12.50
2018-08-06T14:13:33.201Z,12.22
2018-08-06T14:16:01.480Z,12.09
2018-08-06T14:18:29.733Z,11.93
2018-08-06T14:20:57.983Z,11.85
2018-08-06T14:23:26.537Z,11.89
2018-08-06T14:25:56.611Z,10.91
2018-08-06T14:28:24.867Z,12.12
2018-08-06T14:30:53.425Z,12.35
2018-08-06T14:33:22.205Z,11.83
2018-08-06T14:35:50.827Z,11.62
2018-08-06T14:38:19.192Z,12.07
2018-08-06T14:40:47.739Z,11.52
2018-08-06T14:43:16.820Z,11.63
2018-08-06T14:45:45.423Z,11.97
2018-08-06T14:48:13.702Z,11.42
2018-08-06T14:50:43.413Z,11.27
2018-08-06T14:53:11.701Z,12.35
2018-08-06T14:55:39.903Z,11.46
2018-08-06T14:58:08.704Z,10.36
2018-08-06T15:00:37.224Z,12.18
2018-08-06T15:03:05.974Z,11.72
2018-08-06T15:05:34.198Z,11.81
2018-08-06T15:08:02.613Z,11.63
2018-08-06T15:10:30.932Z,11.83
2018-08-06T15:12:59.458Z,12.07
2018-08-06T15:15:27.881Z,12.05
2018-08-06T15:17:55.990Z,11.20
2018-08-06T15:20:24.244Z,11.04
2018-08-06T15:22:52.752Z,10.91
2018-08-06T15:25:23.633Z,11.98
2018-08-06T15:27:51.877Z,11.60
2018-08-06T15:30:20.136Z,11.37
2018-08-06T15:32:48.460Z,11.57
2018-08-06T15:35:16.860Z,12.37
2018-08-06T15:37:45.256Z,11.29
2018-08-06T15:40:16.966Z,10.91
2018-08-06T15:42:45.546Z,12.49
2018-08-06T15:45:14.927Z,10.57
2018-08-06T15:47:44.060Z,10.80
2018-08-06T15:50:19.138Z,10.46
2018-08-06T15:52:47.839Z,11.14
2018-08-06T15:55:16.057Z,11.29
2018-08-06T15:57:44.410Z,10.94
2018-08-06T16:00:15.499Z,10.99
2018-08-06T16:02:44.729Z,11.41
2018-08-06T16:05:14.158Z,11.69
2018-08-06T16:07:43.692Z,11.66
2018-08-06T16:10:12.578Z,12.06
2018-08-06T16:12:41.246Z,12.35
2018-08-06T16:15:11.334Z,11.98
2018-08-06T16:17:40.714Z,11.86
2018-08-06T16:20:13.080Z,12.41
2018-08-06T16:22:41.913Z,12.92
2018-08-06T16:25:10.975Z,12.90
2018-08-06T16:27:39.199Z,12.90
2018-08-06T16:30:15.477Z,13.44
2018-08-06T16:32:44.853Z,12.93
2018-08-06T16:35:13.126Z,12.62
2018-08-06T16:37:41.779Z,12.81
2018-08-06T16:40:10.966Z,13.23
2018-08-06T16:42:39.204Z,12.80
2018-08-06T16:45:08.181Z,13.59
2018-08-06T16:47:37.528Z,12.99
2018-08-06T16:50:08.100Z,13.27
2018-08-06T16:52:36.766Z,13.81
2018-08-06T16:55:06.193Z,14.19
2018-08-06T16:57:34.807Z,14.28
2018-08-06T17:00:04.968Z,13.37
2018-08-06T17:02:33.205Z,13.38
2018-08-06T17:05:01.404Z,13.99
2018-08-06T17:07:31.265Z,13.67
2018-08-06T17:09:59.489Z,13.87
2018-08-06T17:12:27.753Z,14.67
2018-08-06T17:14:56.146Z,14.77
2018-08-06T17:17:24.677Z,14.46
2018-08-06T17:19:53.209Z,15.00
2018-08-06T17:22:22.376Z,15.36
2018-08-06T17:24:50.762Z,15.59
2018-08-06T17:27:19.768Z,17.46
2018-08-06T17:29:48.533Z,17.79
2018-08-06T17:32:17.104Z,19.20
2018-08-06T17:34:46.311Z,18.41
2018-08-06T17:37:15.151Z,18.06
2018-08-06T17:39:43.423Z,18.16
2018-08-06T17:42:12.692Z,18.62
2018-08-06T17:44:41.204Z,18.10
2018-08-06T17:47:10.088Z,19.00
2018-08-06T17:49:38.921Z,19.78
2018-08-06T17:52:08.196Z,21.03
2018-08-06T17:54:37.077Z,22.56
2018-08-06T17:57:06.138Z,23.26
2018-08-06T17:59:35.858Z,23.44
2018-08-06T18:02:04.903Z,23.84
2018-08-06T18:04:34.002Z,23.89
2018-08-06T18:07:02.348Z,24.69
2018-08-06T18:09:30.949Z,25.25
2018-08-06T18:11:59.181Z,25.74
2018-08-06T18:14:27.723Z,25.42
2018-08-06T18:16:55.928Z,25.97
2018-08-06T18:19:24.621Z,26.49
2018-08-06T18:21:52.982Z,26.99
2018-08-06T18:24:21.201Z,27.07
2018-08-06T18:26:49.449Z,27.21
2018-08-06T18:29:18.150Z,27.25
2018-08-06T18:31:47.019Z,27.59
2018-08-06T18:34:15.200Z,28.21
2018-08-06T18:36:43.488Z,28.24
2018-08-06T18:39:12.678Z,28.80
2018-08-06T18:41:41.991Z,28.17
2018-08-06T18:44:10.141Z,29.14
2018-08-06T18:46:39.309Z,29.45
2018-08-06T18:49:08.472Z,29.79
2018-08-06T18:51:37.424Z,30.01
2018-08-06T18:54:06.242Z,30.64
2018-08-06T18:56:34.879Z,31.20
2018-08-06T18:59:03.446Z,29.91
2018-08-06T19:01:31.877Z,30.47
2018-08-06T19:04:00.361Z,30.78
2018-08-06T19:06:28.880Z,30.77
2018-08-06T19:08:57.324Z,31.27
2018-08-06T19:11:26.104Z,31.62
2018-08-06T19:14:28.443Z,31.62
2018-08-06T19:16:56.601Z,31.75
2018-08-06T19:19:26.321Z,31.50
2018-08-06T19:21:55.770Z,32.64
2018-08-06T19:24:29.766Z,31.71
2018-08-06T19:26:59.482Z,32.05
2018-08-06T19:29:27.668Z,31.82
2018-08-06T19:31:56.847Z,35.27
2018-08-06T19:34:25.640Z,36.53
2018-08-06T19:36:59.498Z,36.20
2018-08-06T19:39:27.934Z,37.25
2018-08-06T19:41:57.479Z,38.27
2018-08-06T19:44:25.690Z,39.08
2018-08-06T19:46:53.879Z,39.78
2018-08-06T19:49:27.658Z,39.17
2018-08-06T19:51:56.589Z,39.06
2018-08-06T19:54:25.236Z,39.92
2018-08-06T19:56:53.706Z,39.98
2018-08-06T19:59:22.593Z,39.41
2018-08-06T20:01:51.461Z,39.95
2018-08-06T20:04:20.260Z,38.77
2018-08-06T20:06:48.480Z,39.43
2018-08-06T20:09:17.027Z,40.44
2018-08-06T20:11:45.795Z,39.97
2018-08-06T20:14:14.399Z,40.86
2018-08-06T20:16:42.861Z,41.38
2018-08-06T20:19:11.177Z,41.34
2018-08-06T20:21:39.702Z,41.35
2018-08-06T20:24:08.476Z,41.83
2018-08-06T20:26:36.785Z,42.25
2018-08-06T20:29:06.022Z,42.46
2018-08-06T20:31:34.279Z,42.70
2018-08-06T20:34:03.440Z,42.60
2018-08-06T20:36:31.625Z,42.69
2018-08-06T20:38:59.840Z,42.92
2018-08-06T20:41:28.961Z,43.72
2018-08-06T20:43:59.099Z,43.64
2018-08-06T20:46:29.093Z,43.28
2018-08-06T20:48:57.753Z,43.03
2018-08-06T20:51:26.307Z,42.84
2018-08-06T20:53:55.400Z,42.29
2018-08-06T20:56:25.458Z,42.80
2018-08-06T20:58:53.964Z,43.38
2018-08-06T21:01:22.473Z,43.89
2018-08-06T21:03:51.637Z,43.95
2018-08-06T21:06:19.828Z,43.82
2018-08-06T21:08:48.236Z,44.24
2018-08-06T21:11:16.583Z,43.85
2018-08-06T21:13:44.813Z,44.35
2018-08-06T21:16:13.394Z,44.41
2018-08-06T21:18:42.115Z,44.07
2018-08-06T21:21:10.648Z,43.87
2018-08-06T21:23:39.146Z,44.08
2018-08-06T21:26:07.349Z,43.91
2018-08-06T21:28:35.561Z,44.82
2018-08-06T21:31:04.181Z,45.72
2018-08-06T21:33:32.386Z,45.37
2018-08-06T21:36:01.483Z,45.95
2018-08-06T21:38:29.599Z,46.16
2018-08-06T21:40:58.064Z,45.82
2018-08-06T21:43:26.306Z,45.90
2018-08-06T21:45:54.836Z,46.41
2018-08-06T21:48:24.390Z,46.20
2018-08-06T21:50:52.650Z,46.47
2018-08-06T21:53:20.924Z,46.45
2018-08-06T21:55:49.226Z,46.75
2018-08-06T21:58:17.749Z,46.89
2018-08-06T22:00:46.599Z,47.09
2018-08-06T22:03:16.484Z,46.77
2018-08-06T22:05:45.179Z,47.24
2018-08-06T22:08:13.714Z,47.23
2018-08-06T22:10:42.031Z,47.59
2018-08-06T22:13:10.713Z,48.43
2018-08-06T22:15:39.255Z,48.21
2018-08-06T22:18:10.425Z,48.43
2018-08-06T22:20:38.940Z,48.64
2018-08-06T22:23:07.666Z,49.51
2018-08-06T22:25:35.852Z,48.97
2018-08-06T22:28:04.697Z,48.79
2018-08-06T22:30:33.179Z,48.79
2018-08-06T22:33:01.761Z,49.31
2018-08-06T22:35:30.312Z,49.50
2018-08-06T22:37:58.743Z,49.74
2018-08-06T22:40:27.201Z,50.05
2018-08-06T22:42:55.705Z,50.37
2018-08-06T22:45:24.686Z,50.24
2018-08-06T22:47:53.372Z,50.41
2018-08-06T22:50:21.557Z,50.48
2018-08-06T22:52:49.874Z,50.82
2018-08-06T22:55:18.614Z,51.29
2018-08-06T22:57:47.203Z,51.94
2018-08-06T23:00:16.477Z,52.16
2018-08-06T23:02:45.682Z,52.40
2018-08-06T23:05:15.632Z,52.67
2018-08-06T23:07:44.117Z,53.18
2018-08-06T23:10:17.128Z,53.34
2018-08-06T23:12:45.604Z,53.65
2018-08-06T23:15:16.661Z,54.31
2018-08-06T23:17:45.809Z,55.16
2018-08-06T23:20:21.023Z,55.15
2018-08-06T23:22:49.360Z,55.32
2018-08-06T23:25:19.824Z,55.42
2018-08-06T23:27:47.997Z,55.26
2018-08-06T23:30:16.156Z,55.41
2018-08-06T23:32:45.084Z,55.63
2018-08-06T23:35:13.809Z,54.98
2018-08-06T23:37:43.905Z,55.30
2018-08-06T23:40:14.057Z,55.46
2018-08-06T23:42:43.284Z,55.18
2018-08-06T23:45:14.479Z,54.32
2018-08-06T23:47:43.775Z,54.63
2018-08-06T23:50:13.948Z,54.32
2018-08-06T23:52:43.366Z,54.09
2018-08-06T23:55:13.522Z,54.16
2018-08-06T23:57:42.132Z,54.32
